• Join FlightAware (Why Join?)
  • Login
  • US Flag 
02:03PM EDT


 

Airport Tracker/Info


-or-


 

Live Flight TrackerFlight Track Log ✈ CLH2397 ✈ 22-Jan-2014 ✈ LFSB / EAP - EDDM / MUC

Flight Track Log - Related Links

Times and Time Zones

All times are in EST time to prevent confusion due to time zone crossing. See the CLH2397 flight status page for this flight to view local times or setup timezone preferences in your user account.

Time Position Orientation Groundspeed Altitude Reporting Facility
EST Latitude Longitude Course Direction KTS MPH feet Rate Location/Type
10:48AM 47.6822 7.9964 73° East  Level Estimated
10:49AM 47.7051 8.1133 74° East  Level Estimated
10:50AM 47.7278 8.2303 74° East  Level Estimated
10:51AM 47.7504 8.3474 74° East  Level Estimated
10:52AM 47.7729 8.4646 74° East  Level Estimated
10:53AM 47.7953 8.5819 74° East  Level Estimated
10:54AM 47.8176 8.6993 74° East  Level Estimated
10:55AM 47.8397 8.8167 74° East  Level Estimated
10:56AM 47.8617 8.9343 74° East  Level Estimated
10:57AM 47.8836 9.0520 74° East  Level Estimated
10:58AM 47.9054 9.1698 75° East  Level Estimated
10:59AM 47.9271 9.2877 75° East  Level Estimated
11:00AM 47.9486 9.4057 75° East  Level Estimated
11:01AM 47.9700 9.5238 75° East  Level Estimated
11:02AM 47.9913 9.6420 75° East  Level Estimated
11:03AM 48.0125 9.7602 75° East  Level Estimated
11:04AM 48.0335 9.8786 75° East  Level Estimated
11:05AM 48.0545 9.9971 75° East  Level Estimated
11:06AM 48.0753 10.1157 75° East  Level Estimated
11:07AM 48.0960 10.2343 75° East  Level Estimated
11:08AM 48.1165 10.3531 75° East  Level Estimated
11:09AM 48.1370 10.4720 76° East  Level Estimated
11:10AM 48.1662 10.6433 76° East  Level Estimated
11:11AM 48.1951 10.8148 76° East  Level Estimated
11:12AM 48.2239 10.9865 76° East  Level Estimated
11:13AM 48.2523 11.1584 76° East  Level Estimated
11:14AM 48.2805 11.3305 76° East  Level Estimated
11:15AM 48.3085 11.5028 76° East  Level Estimated
11:16AM 48.3361 11.6752 76° East  Level Estimated
11:17AM 48.3538 11.7861 76° East  Level Estimated
11:18AM 48.3538 11.7861 318° Northwest  Level Estimated
11:19AM 48.3538 11.7861 318° Northwest  Level Estimated
11:20AM 48.3538 11.7861 318° Northwest  Level Estimated
11:21AM 48.3538 11.7861 318° Northwest  Level Estimated
11:22AM 48.3538 11.7861 318° Northwest  Level Estimated
11:23AM 48.3538 11.7861 318° Northwest  Level Estimated
11:24AM 48.3538 11.7861 318° Northwest  Level Estimated
11:25AM 48.3538 11.7861 318° Northwest  Level Estimated